Amsterdam, MO

11:06 AM CDT on May 06, 2015 (GMT -0500)
KMOAMSTE2 | | Change Station
CLOSE
Current Station
Personal Weather Station
Location: Amsterdam, MO
Elevation: 906 ft
Nearby Weather Stations

Elev 906 ft 38.36 °N, 94.61 °W | Updated 10 seconds ago

Overcast
Overcast
71.1 °F
Feels Like 77 °F
N
3.4
Wind Variable Wind from ESE
Gusts 3.4 mph

Today
High -- | Low -- °F
--% Chance of Precip.
Yesterday
High -- | Low -- °F
Precip. -- in
6:15 AM 8:14 PM
Waning Gibbous, 93% visible
Pressure 29.95 in
Visibility 10.0 miles
Clouds Scattered Clouds 1900 ft
Mostly Cloudy 10000 ft
Heat Index 77 °F
Dew Point 45 °F
Humidity 39%
Rainfall 0.00 in
Snow Depth Not available.
UV 3 out of 12
Pollen 4.30 out of 12
Air Quality Not available.
Flu Activity Sporadic
METAR KOJC 061453Z 18016G23KT 10SM SCT019 BKN100 18/16 A2997 RMK AO2 SLP141 60000 T01830156 53013

More Conditions Fewer Conditions

Pressure 29.95 in
Visibility 10.0 miles
Clouds Scattered Clouds 1900 ft
Mostly Cloudy 10000 ft
Heat Index 77 °F
Dew Point 45 °F
Humidity 39%
Rainfall 0.00 in
Snow Depth Not available.
UV 3 out of 12
Pollen 4.30 out of 12
Air Quality Not available.
Flu Activity Sporadic
METAR KOJC 061453Z 18016G23KT 10SM SCT019 BKN100 18/16 A2997 RMK AO2 SLP141 60000 T01830156 53013

More Conditions Fewer Conditions

10-Day Weather Forecast

Almanac

Astronomy

May. 06, 2015 Rise Set
Actual Time
Civil Twilight
Nautical Twilight
Astronomical Twilight
Moon
Length of Visible Light
Length of Day
Tomorrow will be .
, % of the Moon is Illuminated

Today's Extremes

State Highs State Lows

Community

WunderPhotos

Upload Photos

1,818,943 photos uploaded!

WunderBlogs® & News

Nearby

Air Quality

  Air Quality AQ Index Pollutant
Not available.

Snow Depth

Station Depth Elevation

Earthquake Activity

City Distance Mag. Time & Date
Minimum magnitude displayed is 2.5.

Coastal Water Temperatures

Place Temperature

Stations

Nearby Weather Stations

Station Location Temp. Windchill Dew Point Humidity Wind Precip. Elev Updated Type